sensor_id;sensor_type;location;lat;lon;timestamp;pressure;altitude;pressure_sealevel;temperature;humidity
2785;BME280;57944;48.722;9.316;2023-08-20T00:00:19;98401.19;;;20.94;100.00
2785;BME280;57944;48.722;9.316;2023-08-20T00:02:54;98395.25;;;20.93;100.00
2785;BME280;57944;48.722;9.316;2023-08-20T00:05:29;98397.03;;;20.88;100.00
2785;BME280;57944;48.722;9.316;2023-08-20T00:08:00;98400.06;;;20.80;100.00
2785;BME280;57944;48.722;9.316;2023-08-20T00:10:30;98398.28;;;20.85;100.00
2785;BME280;57944;48.722;9.316;2023-08-20T00:13:03;98398.84;;;20.87;100.00
2785;BME280;57944;48.722;9.316;2023-08-20T00:15:34;98404.84;;;20.93;100.00
2785;BME280;57944;48.722;9.316;2023-08-20T00:18:06;98394.75;;;20.96;100.00
2785;BME280;57944;48.722;9.316;2023-08-20T00:20:37;98402.28;;;20.98;100.00
2785;BME280;57944;48.722;9.316;2023-08-20T00:23:09;98411.59;;;20.99;100.00
2785;BME280;57944;48.722;9.316;2023-08-20T00:25:40;98408.03;;;21.05;100.00
2785;BME280;57944;48.722;9.316;2023-08-20T00:28:14;98413.75;;;21.07;100.00
2785;BME280;57944;48.722;9.316;2023-08-20T00:30:44;98418.41;;;21.10;100.00
2785;BME280;57944;48.722;9.316;2023-08-20T00:33:16;98411.97;;;21.13;100.00
2785;BME280;57944;48.722;9.316;2023-08-20T00:35:47;98411.19;;;21.12;100.00
2785;BME280;57944;48.722;9.316;2023-08-20T00:38:18;98418.41;;;21.10;100.00
2785;BME280;57944;48.722;9.316;2023-08-20T00:40:49;98413.19;;;21.05;100.00
2785;BME280;57944;48.722;9.316;2023-08-20T00:43:23;98411.06;;;20.97;100.00
2785;BME280;57944;48.722;9.316;2023-08-20T00:45:54;98411.97;;;20.81;100.00
2785;BME280;57944;48.722;9.316;2023-08-20T00:48:25;98418.53;;;20.88;100.00
2785;BME280;57944;48.722;9.316;2023-08-20T00:50:56;98415.66;;;20.85;100.00
2785;BME280;57944;48.722;9.316;2023-08-20T00:53:27;98419.16;;;20.68;100.00
2785;BME280;57944;48.722;9.316;2023-08-20T00:55:58;98419.09;;;20.63;100.00
2785;BME280;57944;48.722;9.316;2023-08-20T00:58:32;98422.78;;;20.67;100.00
2785;BME280;57944;48.722;9.316;2023-08-20T01:01:02;98416.00;;;20.66;100.00
2785;BME280;57944;48.722;9.316;2023-08-20T01:03:33;98414.84;;;20.52;100.00
2785;BME280;57944;48.722;9.316;2023-08-20T01:06:12;98416.88;;;20.50;100.00
2785;BME280;57944;48.722;9.316;2023-08-20T01:08:46;98412.72;;;20.49;100.00
2785;BME280;57944;48.722;9.316;2023-08-20T01:11:21;98412.50;;;20.50;100.00
2785;BME280;57944;48.722;9.316;2023-08-20T01:13:58;98415.03;;;20.45;100.00
2785;BME280;57944;48.722;9.316;2023-08-20T01:16:29;98420.72;;;20.42;100.00
2785;BME280;57944;48.722;9.316;2023-08-20T01:19:00;98407.44;;;20.39;100.00
2785;BME280;57944;48.722;9.316;2023-08-20T01:21:38;98420.41;;;20.39;100.00
2785;BME280;57944;48.722;9.316;2023-08-20T01:24:21;98424.03;;;20.38;100.00
2785;BME280;57944;48.722;9.316;2023-08-20T01:27:10;98429.09;;;20.27;100.00
2785;BME280;57944;48.722;9.316;2023-08-20T01:29:51;98433.25;;;20.28;100.00
2785;BME280;57944;48.722;9.316;2023-08-20T01:32:23;98437.88;;;20.26;100.00
2785;BME280;57944;48.722;9.316;2023-08-20T01:34:55;98432.72;;;20.26;100.00
2785;BME280;57944;48.722;9.316;2023-08-20T01:37:26;98429.28;;;20.21;100.00
2785;BME280;57944;48.722;9.316;2023-08-20T01:39:56;98425.94;;;20.20;100.00
2785;BME280;57944;48.722;9.316;2023-08-20T01:42:27;98425.63;;;20.17;100.00
2785;BME280;57944;48.722;9.316;2023-08-20T01:45:00;98436.72;;;20.12;100.00
2785;BME280;57944;48.722;9.316;2023-08-20T01:47:30;98440.63;;;20.15;100.00
2785;BME280;57944;48.722;9.316;2023-08-20T01:50:02;98435.31;;;20.04;100.00
2785;BME280;57944;48.722;9.316;2023-08-20T01:52:34;98439.25;;;20.07;100.00
2785;BME280;57944;48.722;9.316;2023-08-20T01:55:06;98432.81;;;20.09;100.00
2785;BME280;57944;48.722;9.316;2023-08-20T01:57:36;98438.47;;;20.06;100.00
2785;BME280;57944;48.722;9.316;2023-08-20T02:00:11;98432.75;;;20.04;100.00
2785;BME280;57944;48.722;9.316;2023-08-20T02:02:42;98443.31;;;20.03;100.00
2785;BME280;57944;48.722;9.316;2023-08-20T02:05:13;98439.72;;;20.04;100.00
2785;BME280;57944;48.722;9.316;2023-08-20T02:07:43;98439.16;;;20.02;100.00
2785;BME280;57944;48.722;9.316;2023-08-20T02:10:14;98440.22;;;20.01;100.00
2785;BME280;57944;48.722;9.316;2023-08-20T02:12:45;98443.81;;;20.00;100.00
2785;BME280;57944;48.722;9.316;2023-08-20T02:15:19;98445.31;;;19.96;100.00
2785;BME280;57944;48.722;9.316;2023-08-20T02:17:50;98442.44;;;19.92;100.00
2785;BME280;57944;48.722;9.316;2023-08-20T02:20:22;98438.03;;;19.93;100.00
2785;BME280;57944;48.722;9.316;2023-08-20T02:22:54;98441.34;;;19.88;100.00
2785;BME280;57944;48.722;9.316;2023-08-20T02:25:26;98436.66;;;19.85;100.00
2785;BME280;57944;48.722;9.316;2023-08-20T02:27:56;98440.28;;;19.84;100.00
2785;BME280;57944;48.722;9.316;2023-08-20T02:30:30;98441.53;;;19.81;100.00
2785;BME280;57944;48.722;9.316;2023-08-20T02:33:00;98442.31;;;19.82;100.00
2785;BME280;57944;48.722;9.316;2023-08-20T02:35:31;98445.66;;;19.82;100.00
2785;BME280;57944;48.722;9.316;2023-08-20T02:38:02;98453.28;;;19.72;100.00
2785;BME280;57944;48.722;9.316;2023-08-20T02:40:38;98461.00;;;19.67;100.00
2785;BME280;57944;48.722;9.316;2023-08-20T02:43:09;98444.38;;;19.63;100.00
2785;BME280;57944;48.722;9.316;2023-08-20T02:45:45;98447.84;;;19.52;100.00
2785;BME280;57944;48.722;9.316;2023-08-20T02:48:18;98449.34;;;19.48;100.00
2785;BME280;57944;48.722;9.316;2023-08-20T02:50:49;98448.25;;;19.43;100.00
2785;BME280;57944;48.722;9.316;2023-08-20T02:53:19;98447.84;;;19.52;100.00
2785;BME280;57944;48.722;9.316;2023-08-20T02:55:50;98449.66;;;19.51;100.00
2785;BME280;57944;48.722;9.316;2023-08-20T02:58:20;98446.22;;;19.46;100.00
2785;BME280;57944;48.722;9.316;2023-08-20T03:00:53;98441.44;;;19.37;100.00
2785;BME280;57944;48.722;9.316;2023-08-20T03:03:25;98437.34;;;19.41;100.00
2785;BME280;57944;48.722;9.316;2023-08-20T03:05:56;98439.94;;;19.41;100.00
2785;BME280;57944;48.722;9.316;2023-08-20T03:08:26;98440.19;;;19.40;100.00
2785;BME280;57944;48.722;9.316;2023-08-20T03:10:57;98440.09;;;19.35;100.00
2785;BME280;57944;48.722;9.316;2023-08-20T03:13:27;98438.78;;;19.32;100.00
2785;BME280;57944;48.722;9.316;2023-08-20T03:16:01;98436.13;;;19.27;100.00
2785;BME280;57944;48.722;9.316;2023-08-20T03:18:31;98429.41;;;19.26;100.00
2785;BME280;57944;48.722;9.316;2023-08-20T03:21:02;98424.22;;;19.26;100.00
2785;BME280;57944;48.722;9.316;2023-08-20T03:23:33;98424.16;;;19.21;100.00
2785;BME280;57944;48.722;9.316;2023-08-20T03:26:06;98426.25;;;19.24;100.00
2785;BME280;57944;48.722;9.316;2023-08-20T03:28:37;98428.13;;;19.29;100.00
2785;BME280;57944;48.722;9.316;2023-08-20T03:31:10;98425.56;;;19.29;100.00
2785;BME280;57944;48.722;9.316;2023-08-20T03:33:42;98417.72;;;19.24;100.00
2785;BME280;57944;48.722;9.316;2023-08-20T03:36:13;98427.75;;;19.20;100.00
2785;BME280;57944;48.722;9.316;2023-08-20T03:38:44;98429.72;;;19.13;100.00
2785;BME280;57944;48.722;9.316;2023-08-20T03:41:14;98429.78;;;19.18;100.00
2785;BME280;57944;48.722;9.316;2023-08-20T03:43:45;98436.75;;;19.17;100.00
2785;BME280;57944;48.722;9.316;2023-08-20T03:46:19;98438.25;;;19.13;100.00
2785;BME280;57944;48.722;9.316;2023-08-20T03:48:49;98438.50;;;19.12;100.00
2785;BME280;57944;48.722;9.316;2023-08-20T03:51:20;98435.81;;;19.07;100.00
2785;BME280;57944;48.722;9.316;2023-08-20T03:53:50;98448.66;;;19.02;100.00
2785;BME280;57944;48.722;9.316;2023-08-20T03:56:22;98444.91;;;18.92;100.00
2785;BME280;57944;48.722;9.316;2023-08-20T03:58:52;98444.91;;;18.92;100.00
2785;BME280;57944;48.722;9.316;2023-08-20T04:01:26;98448.81;;;18.95;100.00
2785;BME280;57944;48.722;9.316;2023-08-20T04:03:56;98437.38;;;18.91;100.00
2785;BME280;57944;48.722;9.316;2023-08-20T04:06:27;98428.31;;;18.88;100.00
2785;BME280;57944;48.722;9.316;2023-08-20T04:08:58;98421.56;;;18.87;100.00
2785;BME280;57944;48.722;9.316;2023-08-20T04:11:28;98421.56;;;18.87;100.00
2785;BME280;57944;48.722;9.316;2023-08-20T04:13:59;98424.78;;;18.78;100.00
2785;BME280;57944;48.722;9.316;2023-08-20T04:16:32;98433.06;;;18.80;100.00
2785;BME280;57944;48.722;9.316;2023-08-20T04:19:03;98439.84;;;18.69;100.00
2785;BME280;57944;48.722;9.316;2023-08-20T04:21:34;98438.38;;;18.73;100.00
2785;BME280;57944;48.722;9.316;2023-08-20T04:24:06;98439.38;;;18.72;100.00
2785;BME280;57944;48.722;9.316;2023-08-20T04:26:36;98441.94;;;18.72;100.00
2785;BME280;57944;48.722;9.316;2023-08-20T04:29:07;98448.47;;;18.74;100.00
2785;BME280;57944;48.722;9.316;2023-08-20T04:31:40;98448.34;;;18.81;100.00
2785;BME280;57944;48.722;9.316;2023-08-20T04:34:11;98458.69;;;18.81;100.00
2785;BME280;57944;48.722;9.316;2023-08-20T04:36:46;98454.13;;;18.88;100.00
2785;BME280;57944;48.722;9.316;2023-08-20T04:39:17;98446.25;;;18.95;100.00
2785;BME280;57944;48.722;9.316;2023-08-20T04:41:51;98439.50;;;18.94;100.00
2785;BME280;57944;48.722;9.316;2023-08-20T04:44:26;98442.41;;;18.97;100.00
2785;BME280;57944;48.722;9.316;2023-08-20T04:47:00;98445.84;;;19.03;100.00
2785;BME280;57944;48.722;9.316;2023-08-20T04:49:33;98450.31;;;19.08;100.00
2785;BME280;57944;48.722;9.316;2023-08-20T04:52:04;98458.44;;;19.16;100.00
2785;BME280;57944;48.722;9.316;2023-08-20T04:54:35;98459.84;;;19.24;100.00
2785;BME280;57944;48.722;9.316;2023-08-20T04:57:05;98459.84;;;19.24;100.00
2785;BME280;57944;48.722;9.316;2023-08-20T04:59:36;98465.28;;;19.23;100.00
2785;BME280;57944;48.722;9.316;2023-08-20T05:02:15;98465.31;;;19.28;100.00
2785;BME280;57944;48.722;9.316;2023-08-20T05:04:52;98471.03;;;19.47;100.00
2785;BME280;57944;48.722;9.316;2023-08-20T05:07:24;98481.53;;;19.74;100.00
2785;BME280;57944;48.722;9.316;2023-08-20T05:09:55;98468.66;;;20.01;100.00
2785;BME280;57944;48.722;9.316;2023-08-20T05:12:26;98481.19;;;20.31;100.00
2785;BME280;57944;48.722;9.316;2023-08-20T05:14:56;98479.66;;;20.57;100.00
2785;BME280;57944;48.722;9.316;2023-08-20T05:17:29;98479.44;;;20.91;100.00
2785;BME280;57944;48.722;9.316;2023-08-20T05:20:00;98484.94;;;21.32;100.00
2785;BME280;57944;48.722;9.316;2023-08-20T05:22:31;98478.69;;;21.65;100.00
2785;BME280;57944;48.722;9.316;2023-08-20T05:25:03;98486.84;;;21.94;100.00
2785;BME280;57944;48.722;9.316;2023-08-20T05:27:33;98490.16;;;22.32;100.00
2785;BME280;57944;48.722;9.316;2023-08-20T05:30:06;98489.94;;;22.64;100.00
2785;BME280;57944;48.722;9.316;2023-08-20T05:32:41;98473.59;;;22.74;100.00
2785;BME280;57944;48.722;9.316;2023-08-20T05:35:11;98471.81;;;23.00;100.00
2785;BME280;57944;48.722;9.316;2023-08-20T05:37:43;98467.88;;;23.28;100.00
2785;BME280;57944;48.722;9.316;2023-08-20T05:40:14;98467.78;;;23.69;100.00
2785;BME280;57944;48.722;9.316;2023-08-20T05:42:45;98461.53;;;23.85;100.00
2785;BME280;57944;48.722;9.316;2023-08-20T05:45:18;98466.75;;;23.75;100.00
2785;BME280;57944;48.722;9.316;2023-08-20T05:47:53;98468.56;;;23.85;100.00
2785;BME280;57944;48.722;9.316;2023-08-20T05:50:24;98479.59;;;24.21;100.00
2785;BME280;57944;48.722;9.316;2023-08-20T05:52:55;98480.06;;;24.73;100.00
2785;BME280;57944;48.722;9.316;2023-08-20T05:55:27;98478.69;;;25.20;100.00
2785;BME280;57944;48.722;9.316;2023-08-20T05:57:58;98487.25;;;25.74;100.00
2785;BME280;57944;48.722;9.316;2023-08-20T06:00:28;98490.78;;;26.31;100.00
2785;BME280;57944;48.722;9.316;2023-08-20T06:03:01;98502.16;;;26.59;100.00
2785;BME280;57944;48.722;9.316;2023-08-20T06:05:32;98512.44;;;26.88;100.00
2785;BME280;57944;48.722;9.316;2023-08-20T06:08:03;98504.63;;;27.21;100.00
2785;BME280;57944;48.722;9.316;2023-08-20T06:10:34;98503.41;;;27.74;100.00
2785;BME280;57944;48.722;9.316;2023-08-20T06:13:04;98505.16;;;28.06;100.00
2785;BME280;57944;48.722;9.316;2023-08-20T06:15:35;98500.31;;;27.99;99.99
2785;BME280;57944;48.722;9.316;2023-08-20T06:18:08;98503.97;;;28.26;98.11
2785;BME280;57944;48.722;9.316;2023-08-20T06:20:38;98508.13;;;28.63;94.31
2785;BME280;57944;48.722;9.316;2023-08-20T06:23:09;98499.50;;;28.85;92.57
2785;BME280;57944;48.722;9.316;2023-08-20T06:25:54;98502.47;;;29.46;87.07
2785;BME280;57944;48.722;9.316;2023-08-20T06:28:24;98502.56;;;29.72;84.84
2785;BME280;57944;48.722;9.316;2023-08-20T06:30:55;98510.97;;;30.00;80.96
2785;BME280;57944;48.722;9.316;2023-08-20T06:33:28;98508.28;;;30.23;77.98
2785;BME280;57944;48.722;9.316;2023-08-20T06:35:58;98504.38;;;30.55;73.88
2785;BME280;57944;48.722;9.316;2023-08-20T06:38:29;98511.00;;;31.05;72.38
2785;BME280;57944;48.722;9.316;2023-08-20T06:40:59;98504.25;;;31.42;69.00
2785;BME280;57944;48.722;9.316;2023-08-20T06:43:30;98509.94;;;31.53;67.01
2785;BME280;57944;48.722;9.316;2023-08-20T06:46:01;98505.63;;;31.48;67.44
2785;BME280;57944;48.722;9.316;2023-08-20T06:48:35;98513.41;;;31.74;65.23
2785;BME280;57944;48.722;9.316;2023-08-20T06:51:12;98516.41;;;32.15;62.88
2785;BME280;57944;48.722;9.316;2023-08-20T06:53:43;98520.59;;;31.95;63.11
2785;BME280;57944;48.722;9.316;2023-08-20T06:56:13;98521.50;;;32.20;62.22
2785;BME280;57944;48.722;9.316;2023-08-20T06:58:44;98512.91;;;32.53;59.33
2785;BME280;57944;48.722;9.316;2023-08-20T07:01:14;98518.28;;;32.77;59.72
2785;BME280;57944;48.722;9.316;2023-08-20T07:03:48;98517.44;;;32.98;57.58
2785;BME280;57944;48.722;9.316;2023-08-20T07:06:19;98528.94;;;32.81;58.73
2785;BME280;57944;48.722;9.316;2023-08-20T07:08:49;98519.00;;;32.65;59.67
2785;BME280;57944;48.722;9.316;2023-08-20T07:11:21;98519.91;;;32.82;58.45
2785;BME280;57944;48.722;9.316;2023-08-20T07:13:51;98522.13;;;32.80;58.47
2785;BME280;57944;48.722;9.316;2023-08-20T07:16:22;98532.94;;;33.32;55.78
2785;BME280;57944;48.722;9.316;2023-08-20T07:18:55;98531.09;;;33.94;53.96
2785;BME280;57944;48.722;9.316;2023-08-20T07:21:26;98532.97;;;34.06;52.33
2785;BME280;57944;48.722;9.316;2023-08-20T07:23:56;98524.19;;;34.30;51.45
2785;BME280;57944;48.722;9.316;2023-08-20T07:26:27;98533.50;;;34.96;49.13
2785;BME280;57944;48.722;9.316;2023-08-20T07:28:57;98529.84;;;35.01;48.83
2785;BME280;57944;48.722;9.316;2023-08-20T07:31:29;98537.69;;;35.25;48.32
2785;BME280;57944;48.722;9.316;2023-08-20T07:34:03;98533.66;;;35.98;46.33
2785;BME280;57944;48.722;9.316;2023-08-20T07:36:39;98538.53;;;36.71;44.66
2785;BME280;57944;48.722;9.316;2023-08-20T07:39:09;98534.91;;;36.40;44.81
2785;BME280;57944;48.722;9.316;2023-08-20T07:41:44;98540.75;;;36.30;45.57
2785;BME280;57944;48.722;9.316;2023-08-20T07:44:15;98540.97;;;36.79;44.25
2785;BME280;57944;48.722;9.316;2023-08-20T07:46:45;98538.91;;;37.38;42.96
2785;BME280;57944;48.722;9.316;2023-08-20T07:49:18;98543.31;;;37.27;43.21
2785;BME280;57944;48.722;9.316;2023-08-20T07:51:49;98547.56;;;37.54;42.68
2785;BME280;57944;48.722;9.316;2023-08-20T07:54:20;98548.47;;;37.92;41.75
2785;BME280;57944;48.722;9.316;2023-08-20T07:56:50;98543.38;;;36.88;43.92
2785;BME280;57944;48.722;9.316;2023-08-20T07:59:21;98544.34;;;36.57;43.97
2785;BME280;57944;48.722;9.316;2023-08-20T08:01:51;98548.28;;;37.51;42.88
2785;BME280;57944;48.722;9.316;2023-08-20T08:04:24;98551.81;;;38.42;41.00
2785;BME280;57944;48.722;9.316;2023-08-20T08:06:55;98556.53;;;39.42;38.98
2785;BME280;57944;48.722;9.316;2023-08-20T08:09:27;98553.78;;;39.31;39.04
2785;BME280;57944;48.722;9.316;2023-08-20T08:11:59;98554.31;;;38.32;40.33
2785;BME280;57944;48.722;9.316;2023-08-20T08:14:30;98556.75;;;38.14;41.11
2785;BME280;57944;48.722;9.316;2023-08-20T08:17:00;98551.63;;;38.28;40.66
2785;BME280;57944;48.722;9.316;2023-08-20T08:19:34;98548.97;;;39.03;39.60
2785;BME280;57944;48.722;9.316;2023-08-20T08:22:04;98551.69;;;39.58;38.16
2785;BME280;57944;48.722;9.316;2023-08-20T08:24:35;98560.38;;;38.62;39.61
2785;BME280;57944;48.722;9.316;2023-08-20T08:27:06;98559.47;;;39.29;38.71
2785;BME280;57944;48.722;9.316;2023-08-20T08:29:36;98557.50;;;39.19;38.78
2785;BME280;57944;48.722;9.316;2023-08-20T08:32:07;98563.34;;;39.91;37.85
2785;BME280;57944;48.722;9.316;2023-08-20T08:34:40;98554.19;;;41.04;35.42
2785;BME280;57944;48.722;9.316;2023-08-20T08:37:10;98560.28;;;41.01;35.98
2785;BME280;57944;48.722;9.316;2023-08-20T08:39:42;98554.94;;;41.37;34.78
2785;BME280;57944;48.722;9.316;2023-08-20T08:42:13;98550.34;;;41.05;35.03
2785;BME280;57944;48.722;9.316;2023-08-20T08:44:45;98542.53;;;40.22;37.00
2785;BME280;57944;48.722;9.316;2023-08-20T08:47:16;98547.09;;;39.51;37.70
2785;BME280;57944;48.722;9.316;2023-08-20T08:49:49;98552.81;;;38.68;39.50
2785;BME280;57944;48.722;9.316;2023-08-20T08:52:22;98547.13;;;38.36;40.15
2785;BME280;57944;48.722;9.316;2023-08-20T08:54:52;98550.31;;;39.79;37.60
2785;BME280;57944;48.722;9.316;2023-08-20T08:57:23;98552.63;;;40.75;35.92
2785;BME280;57944;48.722;9.316;2023-08-20T08:59:54;98546.25;;;40.06;37.12
2785;BME280;57944;48.722;9.316;2023-08-20T09:02:24;98551.53;;;39.88;37.17
2785;BME280;57944;48.722;9.316;2023-08-20T09:04:58;98553.38;;;40.79;35.98
2785;BME280;57944;48.722;9.316;2023-08-20T09:07:28;98549.19;;;41.42;34.78
2785;BME280;57944;48.722;9.316;2023-08-20T09:10:00;98550.63;;;40.47;35.61
2785;BME280;57944;48.722;9.316;2023-08-20T09:12:34;98550.41;;;38.90;38.43
2785;BME280;57944;48.722;9.316;2023-08-20T09:15:10;98545.63;;;37.78;41.26
2785;BME280;57944;48.722;9.316;2023-08-20T09:17:41;98551.22;;;38.60;40.63
2785;BME280;57944;48.722;9.316;2023-08-20T09:20:15;98549.72;;;39.44;38.05
2785;BME280;57944;48.722;9.316;2023-08-20T09:22:49;98555.53;;;38.75;39.44
2785;BME280;57944;48.722;9.316;2023-08-20T09:25:20;98550.94;;;39.09;39.33
2785;BME280;57944;48.722;9.316;2023-08-20T09:27:50;98556.06;;;40.90;36.73
2785;BME280;57944;48.722;9.316;2023-08-20T09:30:24;98558.16;;;42.34;34.12
2785;BME280;57944;48.722;9.316;2023-08-20T09:33:12;98563.88;;;43.03;32.79
2785;BME280;57944;48.722;9.316;2023-08-20T09:35:52;98563.56;;;42.20;34.16
2785;BME280;57944;48.722;9.316;2023-08-20T09:38:23;98561.28;;;42.18;33.91
2785;BME280;57944;48.722;9.316;2023-08-20T09:40:54;98557.41;;;42.23;34.09
2785;BME280;57944;48.722;9.316;2023-08-20T09:43:29;98550.00;;;41.32;35.28
2785;BME280;57944;48.722;9.316;2023-08-20T09:46:03;98547.28;;;40.75;36.11
2785;BME280;57944;48.722;9.316;2023-08-20T09:48:39;98551.13;;;41.52;35.03
2785;BME280;57944;48.722;9.316;2023-08-20T09:51:17;98547.69;;;41.30;35.24
2785;BME280;57944;48.722;9.316;2023-08-20T09:53:53;98545.66;;;42.03;33.98
2785;BME280;57944;48.722;9.316;2023-08-20T09:56:28;98544.75;;;42.34;33.27
2785;BME280;57944;48.722;9.316;2023-08-20T09:59:00;98543.97;;;42.37;32.92
2785;BME280;57944;48.722;9.316;2023-08-20T10:01:31;98542.09;;;42.27;33.19
2785;BME280;57944;48.722;9.316;2023-08-20T10:04:03;98540.69;;;41.97;32.76
2785;BME280;57944;48.722;9.316;2023-08-20T10:06:37;98541.47;;;42.72;31.76
2785;BME280;57944;48.722;9.316;2023-08-20T10:09:08;98538.31;;;43.36;30.60
2785;BME280;57944;48.722;9.316;2023-08-20T10:11:40;98538.41;;;42.77;31.01
2785;BME280;57944;48.722;9.316;2023-08-20T10:14:11;98543.78;;;42.70;31.66
2785;BME280;57944;48.722;9.316;2023-08-20T10:16:42;98536.44;;;42.11;31.66
2785;BME280;57944;48.722;9.316;2023-08-20T10:19:15;98535.81;;;40.74;32.73
2785;BME280;57944;48.722;9.316;2023-08-20T10:21:53;98535.75;;;41.78;31.44
2785;BME280;57944;48.722;9.316;2023-08-20T10:24:24;98530.88;;;41.51;31.76
2785;BME280;57944;48.722;9.316;2023-08-20T10:27:08;98533.53;;;41.59;31.93
2785;BME280;57944;48.722;9.316;2023-08-20T10:29:40;98537.09;;;42.99;29.88
2785;BME280;57944;48.722;9.316;2023-08-20T10:32:12;98525.59;;;43.44;29.40
2785;BME280;57944;48.722;9.316;2023-08-20T10:34:49;98529.16;;;43.68;28.79
2785;BME280;57944;48.722;9.316;2023-08-20T10:37:31;98526.16;;;44.27;28.01
2785;BME280;57944;48.722;9.316;2023-08-20T10:40:05;98528.31;;;42.92;28.49
2785;BME280;57944;48.722;9.316;2023-08-20T10:42:42;98525.00;;;43.98;27.83
2785;BME280;57944;48.722;9.316;2023-08-20T10:45:13;98529.91;;;44.88;27.40
2785;BME280;57944;48.722;9.316;2023-08-20T10:47:44;98530.44;;;43.56;29.48
2785;BME280;57944;48.722;9.316;2023-08-20T10:50:17;98524.53;;;43.72;28.38
2785;BME280;57944;48.722;9.316;2023-08-20T10:52:54;98532.50;;;42.96;29.96
2785;BME280;57944;48.722;9.316;2023-08-20T10:55:25;98530.63;;;42.90;29.74
2785;BME280;57944;48.722;9.316;2023-08-20T10:57:56;98528.47;;;43.60;29.12
2785;BME280;57944;48.722;9.316;2023-08-20T11:00:29;98529.13;;;43.71;28.74
2785;BME280;57944;48.722;9.316;2023-08-20T11:03:00;98531.00;;;43.37;29.12
2785;BME280;57944;48.722;9.316;2023-08-20T11:05:32;98529.22;;;42.74;29.87
2785;BME280;57944;48.722;9.316;2023-08-20T11:08:05;98528.09;;;42.65;31.07
2785;BME280;57944;48.722;9.316;2023-08-20T11:10:36;98527.28;;;42.01;31.63
2785;BME280;57944;48.722;9.316;2023-08-20T11:13:07;98518.56;;;40.54;33.35
2785;BME280;57944;48.722;9.316;2023-08-20T11:15:38;98514.09;;;41.15;32.26
2785;BME280;57944;48.722;9.316;2023-08-20T11:18:08;98523.22;;;42.49;31.20
2785;BME280;57944;48.722;9.316;2023-08-20T11:20:40;98529.66;;;43.14;30.48
2785;BME280;57944;48.722;9.316;2023-08-20T11:23:13;98508.13;;;43.63;29.67
2785;BME280;57944;48.722;9.316;2023-08-20T11:25:44;98507.19;;;43.42;29.71
2785;BME280;57944;48.722;9.316;2023-08-20T11:28:15;98511.31;;;43.85;29.30
2785;BME280;57944;48.722;9.316;2023-08-20T11:30:47;98511.75;;;44.41;28.48
2785;BME280;57944;48.722;9.316;2023-08-20T11:33:18;98504.63;;;43.66;29.20
2785;BME280;57944;48.722;9.316;2023-08-20T11:35:49;98507.22;;;44.38;28.17
2785;BME280;57944;48.722;9.316;2023-08-20T11:38:24;98500.47;;;42.78;29.86
2785;BME280;57944;48.722;9.316;2023-08-20T11:40:55;98494.22;;;43.34;29.06
2785;BME280;57944;48.722;9.316;2023-08-20T11:43:28;98493.81;;;43.39;28.60
2785;BME280;57944;48.722;9.316;2023-08-20T11:45:58;98490.53;;;43.55;28.70
2785;BME280;57944;48.722;9.316;2023-08-20T11:48:29;98496.91;;;43.71;28.85
2785;BME280;57944;48.722;9.316;2023-08-20T11:51:05;98498.50;;;44.27;28.33
2785;BME280;57944;48.722;9.316;2023-08-20T11:53:38;98496.50;;;44.62;27.71
2785;BME280;57944;48.722;9.316;2023-08-20T11:56:13;98491.25;;;43.93;28.69
2785;BME280;57944;48.722;9.316;2023-08-20T11:58:49;98491.41;;;44.13;28.36
2785;BME280;57944;48.722;9.316;2023-08-20T12:01:20;98492.81;;;43.94;28.63
2785;BME280;57944;48.722;9.316;2023-08-20T12:03:50;98489.63;;;44.84;26.93
2785;BME280;57944;48.722;9.316;2023-08-20T12:06:21;98489.75;;;42.12;30.07
2785;BME280;57944;48.722;9.316;2023-08-20T12:08:59;98482.50;;;42.68;29.50
2785;BME280;57944;48.722;9.316;2023-08-20T12:11:31;98481.78;;;42.64;30.02
2785;BME280;57944;48.722;9.316;2023-08-20T12:14:02;98485.66;;;42.56;29.97
2785;BME280;57944;48.722;9.316;2023-08-20T12:16:33;98482.81;;;39.78;33.41
2785;BME280;57944;48.722;9.316;2023-08-20T12:19:03;98482.47;;;39.87;33.18
2785;BME280;57944;48.722;9.316;2023-08-20T12:21:36;98480.03;;;40.58;32.43
2785;BME280;57944;48.722;9.316;2023-08-20T12:24:09;98467.38;;;40.34;31.80
2785;BME280;57944;48.722;9.316;2023-08-20T12:26:40;98467.06;;;41.25;31.22
2785;BME280;57944;48.722;9.316;2023-08-20T12:29:11;98469.91;;;41.99;30.59
2785;BME280;57944;48.722;9.316;2023-08-20T12:31:42;98469.38;;;41.01;31.61
2785;BME280;57944;48.722;9.316;2023-08-20T12:34:12;98465.06;;;38.45;35.09
2785;BME280;57944;48.722;9.316;2023-08-20T12:36:43;98459.19;;;38.70;34.88
2785;BME280;57944;48.722;9.316;2023-08-20T12:39:16;98460.09;;;37.49;37.09
2785;BME280;57944;48.722;9.316;2023-08-20T12:41:46;98458.03;;;37.66;36.81
2785;BME280;57944;48.722;9.316;2023-08-20T12:44:17;98451.69;;;37.21;37.78
2785;BME280;57944;48.722;9.316;2023-08-20T12:46:48;98442.53;;;36.30;39.36
2785;BME280;57944;48.722;9.316;2023-08-20T12:49:18;98443.00;;;35.57;40.96
2785;BME280;57944;48.722;9.316;2023-08-20T12:51:49;98445.69;;;34.78;42.60
2785;BME280;57944;48.722;9.316;2023-08-20T12:54:22;98439.38;;;35.30;42.44
2785;BME280;57944;48.722;9.316;2023-08-20T12:56:53;98445.69;;;34.94;41.98
2785;BME280;57944;48.722;9.316;2023-08-20T12:59:23;98441.19;;;35.46;41.75
2785;BME280;57944;48.722;9.316;2023-08-20T13:01:54;98442.94;;;36.51;39.36
2785;BME280;57944;48.722;9.316;2023-08-20T13:04:26;98445.53;;;37.43;37.72
2785;BME280;57944;48.722;9.316;2023-08-20T13:06:57;98443.53;;;38.23;36.17
2785;BME280;57944;48.722;9.316;2023-08-20T13:09:32;98441.06;;;39.34;33.92
2785;BME280;57944;48.722;9.316;2023-08-20T13:12:03;98432.56;;;39.91;33.99
2785;BME280;57944;48.722;9.316;2023-08-20T13:14:38;98431.31;;;37.89;36.23
2785;BME280;57944;48.722;9.316;2023-08-20T13:17:09;98438.66;;;37.95;35.70
2785;BME280;57944;48.722;9.316;2023-08-20T13:19:40;98428.78;;;38.74;34.40
2785;BME280;57944;48.722;9.316;2023-08-20T13:22:11;98425.59;;;39.72;32.46
2785;BME280;57944;48.722;9.316;2023-08-20T13:24:44;98431.94;;;41.01;31.14
2785;BME280;57944;48.722;9.316;2023-08-20T13:27:14;98426.97;;;42.16;30.28
2785;BME280;57944;48.722;9.316;2023-08-20T13:29:45;98422.78;;;41.06;31.49